Time;durP1;ratioP1;P1;durP2;ratioP2;P2;SDS_P1;SDS_P2;PMS_P1;PMS_P2;Temp;Humidity;BMP_temperature;BMP_pressure;BME280_temperature;BME280_humidity;BME280_pressure;Samples;Min_cycle;Max_cycle;Signal;HPM_P1;HPM_P2
2021/11/07 00:06:21;;;;;;;8.23;7.00;;;9.70;99.90;;;;;;5051660;28;20457;-86
2021/11/07 00:08:56;;;;;;;8.23;6.07;;;9.70;99.90;;;;;;5028078;28;20531;-86
2021/11/07 00:11:31;;;;;;;8.07;7.15;;;9.70;99.90;;;;;;5035319;28;20029;-86
2021/11/07 00:13:56;;;;;;;7.55;6.50;;;9.70;99.90;;;;;;5031544;28;20021;-86
2021/11/07 00:16:25;;;;;;;7.15;6.03;;;9.70;99.90;;;;;;5035494;28;20031;-85
2021/11/07 00:21:43;;;;;;;8.70;6.93;;;9.70;99.90;;;;;;5049435;28;20041;-86
2021/11/07 00:24:47;;;;;;;7.78;6.40;;;9.80;99.90;;;;;;5048100;28;20036;-85
2021/11/07 00:30:16;;;;;;;7.30;5.35;;;9.80;99.90;;;;;;5010034;28;20503;-86
2021/11/07 00:38:17;;;;;;;7.43;6.53;;;9.80;99.90;;;;;;5027064;28;20060;-86
2021/11/07 00:43:20;;;;;;;8.65;7.05;;;9.80;99.90;;;;;;5044304;28;20044;-86
2021/11/07 00:48:36;;;;;;;10.57;7.88;;;9.80;99.90;;;;;;5046343;28;20514;-86
2021/11/07 00:51:12;;;;;;;8.73;7.93;;;9.80;99.90;;;;;;5034835;28;20471;-86
2021/11/07 01:01:26;;;;;;;8.90;7.55;;;9.90;99.90;;;;;;5046289;28;20120;-86
2021/11/07 01:03:52;;;;;;;11.52;8.25;;;9.90;99.90;;;;;;5030334;28;20128;-86
2021/11/07 01:06:19;;;;;;;9.55;8.63;;;9.90;99.90;;;;;;5026500;28;20021;-86
2021/11/07 01:08:45;;;;;;;9.68;8.68;;;9.90;99.90;;;;;;5027413;28;20025;-86
2021/11/07 01:11:11;;;;;;;9.75;8.75;;;9.90;99.90;;;;;;5032628;28;20033;-86
2021/11/07 01:13:36;;;;;;;11.23;10.05;;;10.00;99.90;;;;;;5032943;28;20486;-86
2021/11/07 01:16:02;;;;;;;12.88;10.73;;;10.00;99.90;;;;;;5030809;28;20407;-86
2021/11/07 01:18:28;;;;;;;12.40;9.73;;;10.00;99.90;;;;;;5029155;28;20039;-86
2021/11/07 01:20:54;;;;;;;13.00;10.13;;;10.00;99.90;;;;;;5033003;28;20021;-86
2021/11/07 01:23:28;;;;;;;14.20;12.20;;;10.00;99.90;;;;;;5030372;28;20021;-85
2021/11/07 01:26:02;;;;;;;14.15;12.27;;;10.00;99.90;;;;;;5029708;28;20086;-85
2021/11/07 01:28:35;;;;;;;13.50;12.10;;;10.10;99.90;;;;;;5023463;28;20024;-85
2021/11/07 01:31:00;;;;;;;18.90;14.07;;;10.10;99.90;;;;;;5028523;28;20017;-85
2021/11/07 01:33:28;;;;;;;18.55;13.45;;;10.10;99.90;;;;;;5030425;28;20070;-85
2021/11/07 01:38:26;;;;;;;19.27;14.88;;;10.10;99.90;;;;;;5047437;28;20036;-85
2021/11/07 01:41:01;;;;;;;17.20;15.38;;;10.20;99.90;;;;;;5026991;28;20036;-85
2021/11/07 01:43:28;;;;;;;16.45;14.68;;;10.20;99.90;;;;;;5028753;28;20029;-86
2021/11/07 01:46:04;;;;;;;19.50;15.43;;;10.20;99.90;;;;;;5028897;28;20021;-86
2021/11/07 01:48:32;;;;;;;20.90;16.13;;;10.20;99.90;;;;;;5024025;28;20037;-86
2021/11/07 01:51:00;;;;;;;21.00;16.80;;;10.20;99.90;;;;;;5020420;28;20032;-86
2021/11/07 01:53:32;;;;;;;20.25;17.42;;;10.20;99.90;;;;;;5030015;28;20070;-86
2021/11/07 01:56:02;;;;;;;23.20;19.07;;;10.20;99.90;;;;;;5043695;28;20033;-86
2021/11/07 01:58:29;;;;;;;21.77;17.98;;;10.20;99.90;;;;;;5032808;28;20675;-86
2021/11/07 02:00:55;;;;;;;24.70;19.38;;;10.30;99.90;;;;;;5030497;28;20583;-86
2021/11/07 02:03:21;;;;;;;20.85;18.58;;;10.30;99.90;;;;;;5023439;28;20029;-86
2021/11/07 02:05:47;;;;;;;21.77;19.02;;;10.30;99.90;;;;;;5026153;28;20029;-85
2021/11/07 02:08:13;;;;;;;23.63;18.73;;;10.30;99.90;;;;;;5022322;28;20071;-86
2021/11/07 02:10:40;;;;;;;27.20;20.55;;;10.30;99.90;;;;;;5031797;28;20029;-86
2021/11/07 02:13:06;;;;;;;23.20;19.27;;;10.40;99.90;;;;;;5025191;28;20025;-86
2021/11/07 02:15:32;;;;;;;23.20;19.20;;;10.40;99.90;;;;;;5022731;28;20094;-86
2021/11/07 02:17:57;;;;;;;27.20;20.17;;;10.40;99.90;;;;;;5030112;28;20423;-86
2021/11/07 02:20:28;;;;;;;25.10;20.83;;;10.40;99.90;;;;;;5025492;28;20029;-86
2021/11/07 02:22:54;;;;;;;28.20;20.75;;;10.40;99.90;;;;;;5030498;28;20040;-86
2021/11/07 02:25:19;;;;;;;24.13;19.75;;;10.50;99.90;;;;;;5029780;28;20017;-85
2021/11/07 02:27:46;;;;;;;26.17;21.27;;;10.50;99.90;;;;;;5033820;28;20028;-86
2021/11/07 02:30:14;;;;;;;24.90;20.23;;;10.50;99.90;;;;;;5024391;28;20057;-86
2021/11/07 02:32:42;;;;;;;25.05;21.45;;;10.50;99.90;;;;;;5033489;28;20441;-85
2021/11/07 02:35:08;;;;;;;28.73;23.08;;;10.50;99.90;;;;;;5034918;28;20036;-85
2021/11/07 02:37:33;;;;;;;26.23;20.88;;;10.50;99.90;;;;;;5035480;28;20029;-85
2021/11/07 02:39:59;;;;;;;31.40;21.73;;;10.50;99.90;;;;;;5033187;28;20832;-85
2021/11/07 02:42:25;;;;;;;29.17;22.98;;;10.60;99.90;;;;;;5034000;28;20147;-85
2021/11/07 02:44:51;;;;;;;31.10;22.13;;;10.60;99.90;;;;;;5036234;28;20461;-86
2021/11/07 02:47:18;;;;;;;30.90;23.98;;;10.50;99.90;;;;;;5033910;28;20090;-85
2021/11/07 02:49:44;;;;;;;30.98;23.63;;;10.60;99.90;;;;;;5034379;28;20155;-85
2021/11/07 02:52:13;;;;;;;31.73;24.40;;;10.50;99.90;;;;;;5029442;28;20032;-85
2021/11/07 02:54:40;;;;;;;31.02;24.17;;;10.50;99.90;;;;;;5030079;28;20028;-85
2021/11/07 02:57:07;;;;;;;30.10;23.40;;;10.60;99.90;;;;;;5033408;28;20033;-84
2021/11/07 02:59:37;;;;;;;30.92;24.88;;;10.50;99.90;;;;;;5029959;28;20021;-85
2021/11/07 03:02:05;;;;;;;33.92;26.63;;;10.50;99.90;;;;;;5029330;28;20045;-85
2021/11/07 03:04:31;;;;;;;31.50;26.08;;;10.50;99.90;;;;;;5031628;28;20029;-85
2021/11/07 03:06:57;;;;;;;33.13;27.10;;;10.50;99.90;;;;;;5034165;28;20114;-85
2021/11/07 03:09:28;;;;;;;36.40;26.75;;;10.50;99.90;;;;;;5032952;28;20036;-84
2021/11/07 03:11:55;;;;;;;40.28;27.27;;;10.50;99.90;;;;;;5030539;28;20017;-84
2021/11/07 03:14:23;;;;;;;37.53;28.60;;;10.50;99.90;;;;;;5025293;28;20032;-85
2021/11/07 03:16:50;;;;;;;37.38;27.65;;;10.50;99.90;;;;;;5033864;28;20454;-85
2021/11/07 03:19:18;;;;;;;35.97;26.10;;;10.50;99.90;;;;;;5032850;28;20029;-85
2021/11/07 03:21:43;;;;;;;35.30;26.60;;;10.60;99.90;;;;;;5030297;28;20032;-85
2021/11/07 03:24:12;;;;;;;37.10;27.10;;;10.60;99.90;;;;;;5032822;28;20485;-85
2021/11/07 03:26:38;;;;;;;34.72;25.75;;;10.60;99.90;;;;;;5027530;28;20030;-86
2021/11/07 03:29:06;;;;;;;33.63;24.80;;;10.70;99.90;;;;;;5028377;28;20033;-85
2021/11/07 03:36:52;;;;;;;39.55;27.55;;;10.80;99.90;;;;;;5046957;28;20021;-85
2021/11/07 03:39:21;;;;;;;35.53;26.50;;;10.80;99.90;;;;;;5022129;28;20358;-85
2021/11/07 03:41:47;;;;;;;43.53;28.80;;;10.90;99.90;;;;;;5030743;28;20044;-85
2021/11/07 03:44:14;;;;;;;38.45;28.00;;;10.90;99.90;;;;;;5029352;28;20022;-85
2021/11/07 03:46:42;;;;;;;41.65;28.50;;;10.80;99.90;;;;;;5030184;28;20044;-85
2021/11/07 03:49:09;;;;;;;43.55;30.95;;;10.80;99.90;;;;;;5045110;28;20053;-85
2021/11/07 03:51:36;;;;;;;41.08;28.15;;;10.90;99.90;;;;;;5034779;28;22035;-85
2021/11/07 03:54:03;;;;;;;44.42;30.65;;;10.90;99.90;;;;;;5027791;28;20018;-85
2021/11/07 03:56:29;;;;;;;40.05;28.90;;;10.90;99.90;;;;;;5024953;28;20036;-85
2021/11/07 03:58:55;;;;;;;41.33;30.40;;;10.90;99.90;;;;;;5026386;28;20070;-85
2021/11/07 04:01:20;;;;;;;42.78;28.95;;;10.90;99.90;;;;;;5033847;28;20049;-85
2021/11/07 04:03:46;;;;;;;41.83;29.08;;;10.80;99.90;;;;;;5026916;28;20017;-85
2021/11/07 04:06:12;;;;;;;45.80;32.00;;;10.80;99.90;;;;;;5025770;28;20033;-85
2021/11/07 04:08:39;;;;;;;48.58;32.33;;;10.90;99.90;;;;;;5029681;28;20044;-85
2021/11/07 04:11:05;;;;;;;43.88;30.77;;;10.90;99.90;;;;;;5030936;28;20488;-85
2021/11/07 04:13:31;;;;;;;48.75;31.38;;;10.90;99.90;;;;;;5028107;28;20033;-83
2021/11/07 04:15:57;;;;;;;45.20;30.30;;;10.90;99.90;;;;;;5033664;28;20040;-85
2021/11/07 04:18:23;;;;;;;42.47;30.70;;;10.80;99.90;;;;;;5031902;28;20112;-85
2021/11/07 04:20:49;;;;;;;47.90;32.47;;;10.90;99.90;;;;;;5026867;28;20039;-85
2021/11/07 04:23:15;;;;;;;47.40;33.65;;;10.80;99.90;;;;;;5032190;28;20099;-85
2021/11/07 04:25:40;;;;;;;45.83;30.60;;;10.80;99.90;;;;;;5023258;28;20076;-85
2021/11/07 04:28:06;;;;;;;42.97;29.50;;;10.90;99.90;;;;;;5030110;28;20066;-86
2021/11/07 04:30:34;;;;;;;43.65;31.45;;;10.90;99.90;;;;;;5034682;28;20070;-85
2021/11/07 04:33:00;;;;;;;47.78;32.40;;;10.90;99.90;;;;;;5033387;28;20041;-85
2021/11/07 04:35:26;;;;;;;44.03;30.58;;;10.90;99.90;;;;;;5025556;28;20037;-85
2021/11/07 04:37:52;;;;;;;48.63;29.25;;;10.90;99.90;;;;;;5031824;28;20026;-86
2021/11/07 04:40:17;;;;;;;46.10;28.77;;;10.90;99.90;;;;;;5028722;28;20036;-85
2021/11/07 04:42:44;;;;;;;42.83;25.27;;;10.90;99.90;;;;;;5048239;28;20041;-85
2021/11/07 04:45:10;;;;;;;39.30;23.58;;;11.00;99.90;;;;;;5027384;28;20030;-85
2021/11/07 04:47:36;;;;;;;42.47;23.83;;;11.00;99.90;;;;;;5025896;28;20492;-85
2021/11/07 04:50:04;;;;;;;36.22;21.23;;;11.10;99.90;;;;;;5032900;28;20051;-85
2021/11/07 04:52:29;;;;;;;36.42;20.63;;;11.10;99.90;;;;;;5030186;28;20389;-86
2021/11/07 04:54:55;;;;;;;32.63;18.23;;;11.00;99.90;;;;;;5049933;28;20021;-86
2021/11/07 04:57:21;;;;;;;34.55;19.23;;;11.00;99.90;;;;;;5031626;28;20032;-85
2021/11/07 04:59:46;;;;;;;30.65;18.13;;;11.00;99.90;;;;;;5029127;28;20401;-86
2021/11/07 05:02:12;;;;;;;29.50;17.55;;;10.90;99.90;;;;;;5032531;28;20488;-85
2021/11/07 05:04:37;;;;;;;37.88;18.15;;;10.90;99.90;;;;;;5033481;28;20013;-86
2021/11/07 05:07:03;;;;;;;32.15;17.60;;;10.80;99.90;;;;;;5044873;28;20041;-85
2021/11/07 05:09:29;;;;;;;25.52;14.60;;;10.80;99.90;;;;;;5027366;28;20099;-86
2021/11/07 05:11:55;;;;;;;25.58;14.02;;;10.80;99.90;;;;;;5023475;28;20105;-86
2021/11/07 05:14:20;;;;;;;25.25;12.95;;;10.80;99.90;;;;;;5031682;28;20381;-85
2021/11/07 05:16:46;;;;;;;34.30;14.98;;;10.80;99.90;;;;;;5031758;28;20471;-85
2021/11/07 05:19:12;;;;;;;28.02;11.45;;;10.80;99.90;;;;;;5025263;28;20029;-85
2021/11/07 05:21:39;;;;;;;24.42;10.18;;;10.80;99.90;;;;;;5033367;28;20039;-85
2021/11/07 05:24:05;;;;;;;25.08;9.48;;;10.80;99.90;;;;;;5031457;28;20033;-86
2021/11/07 05:26:31;;;;;;;20.80;7.85;;;10.80;99.90;;;;;;5032517;28;20036;-85
2021/11/07 05:28:57;;;;;;;23.38;7.47;;;10.80;99.90;;;;;;5028672;28;20105;-85
2021/11/07 05:31:23;;;;;;;20.90;6.70;;;10.80;99.90;;;;;;5029954;28;20047;-85
2021/11/07 05:33:48;;;;;;;22.20;6.50;;;10.80;99.90;;;;;;5026709;28;20021;-86
2021/11/07 05:36:14;;;;;;;16.30;6.78;;;10.80;99.90;;;;;;5027011;28;20492;-85
2021/11/07 05:38:40;;;;;;;19.67;8.05;;;10.90;99.90;;;;;;5023241;28;20017;-85
2021/11/07 05:41:06;;;;;;;25.20;7.57;;;10.80;99.90;;;;;;5028770;28;20083;-86
2021/11/07 05:43:32;;;;;;;25.77;8.57;;;10.80;99.90;;;;;;5030192;28;20021;-85
2021/11/07 05:45:58;;;;;;;20.63;8.20;;;10.80;99.90;;;;;;5029873;28;20025;-85
2021/11/07 05:48:23;;;;;;;26.38;8.80;;;10.80;99.90;;;;;;5027408;28;20100;-85
2021/11/07 05:50:49;;;;;;;17.25;7.18;;;10.80;99.90;;;;;;5022992;28;20032;-86
2021/11/07 05:53:14;;;;;;;16.83;7.22;;;10.80;99.90;;;;;;5030551;28;20599;-85
2021/11/07 05:55:40;;;;;;;21.80;6.78;;;10.80;99.90;;;;;;5033381;28;20470;-85
2021/11/07 05:58:05;;;;;;;17.02;5.30;;;10.80;99.90;;;;;;5040936;28;20028;-85
2021/11/07 06:00:32;;;;;;;20.83;5.93;;;10.80;99.90;;;;;;5030268;28;20543;-85
2021/11/07 06:03:00;;;;;;;12.95;4.65;;;10.80;99.90;;;;;;5050404;28;20112;-86
2021/11/07 06:05:26;;;;;;;19.80;4.50;;;10.80;99.90;;;;;;5028164;28;20021;-85
2021/11/07 06:07:52;;;;;;;18.48;4.68;;;10.80;99.90;;;;;;5022028;28;20185;-85
2021/11/07 06:10:18;;;;;;;16.70;3.20;;;10.70;99.90;;;;;;5024388;28;20025;-85
2021/11/07 06:12:43;;;;;;;17.45;3.40;;;10.70;99.90;;;;;;5025137;28;20476;-85
2021/11/07 06:15:09;;;;;;;14.75;2.65;;;10.70;99.90;;;;;;5027285;28;20021;-85
2021/11/07 06:17:35;;;;;;;18.67;3.17;;;10.70;99.90;;;;;;5043270;28;20500;-85
2021/11/07 06:20:02;;;;;;;28.95;2.60;;;10.60;99.90;;;;;;5026233;28;20472;-85
2021/11/07 06:22:28;;;;;;;11.85;1.92;;;10.60;99.90;;;;;;5026058;28;20037;-86
2021/11/07 06:24:53;;;;;;;15.25;2.30;;;10.60;99.90;;;;;;5025475;28;20500;-85
2021/11/07 06:27:19;;;;;;;12.23;1.83;;;10.60;99.90;;;;;;5041058;28;20520;-85
2021/11/07 06:29:45;;;;;;;13.55;1.95;;;10.50;99.90;;;;;;5025339;28;20032;-86
2021/11/07 06:32:11;;;;;;;17.38;2.30;;;10.50;99.90;;;;;;5026487;28;20024;-86
2021/11/07 06:34:38;;;;;;;18.60;2.83;;;10.50;99.90;;;;;;5025251;28;20025;-84
2021/11/07 06:37:09;;;;;;;11.93;1.40;;;10.40;99.90;;;;;;5044135;28;20033;-85
2021/11/07 06:39:35;;;;;;;12.15;1.40;;;10.50;99.90;;;;;;5028692;28;20033;-85
2021/11/07 06:42:01;;;;;;;14.15;1.55;;;10.40;99.90;;;;;;5043737;28;20044;-85
2021/11/07 06:44:27;;;;;;;18.58;1.88;;;10.30;99.90;;;;;;5028544;28;20082;-85
2021/11/07 06:46:52;;;;;;;14.93;1.80;;;10.20;99.90;;;;;;5028457;28;20075;-84
2021/11/07 06:49:18;;;;;;;24.50;2.33;;;10.20;99.90;;;;;;5031502;28;20735;-83
2021/11/07 06:51:45;;;;;;;19.75;1.70;;;10.10;99.90;;;;;;5022165;28;20071;-82
2021/11/07 06:54:11;;;;;;;10.57;1.50;;;10.10;99.90;;;;;;5039700;28;20076;-84
2021/11/07 06:56:38;;;;;;;10.60;1.30;;;10.10;99.90;;;;;;5028168;28;20048;-84
2021/11/07 06:59:04;;;;;;;18.90;1.75;;;10.10;99.90;;;;;;5045427;28;20084;-85
2021/11/07 07:01:30;;;;;;;13.60;1.35;;;10.20;99.90;;;;;;5028744;28;20148;-82
2021/11/07 07:03:56;;;;;;;15.40;1.88;;;10.20;99.90;;;;;;5025617;28;20489;-83
2021/11/07 07:06:22;;;;;;;9.70;1.20;;;10.20;99.90;;;;;;5030881;28;20025;-82
2021/11/07 07:09:04;;;;;;;15.32;1.80;;;10.30;99.90;;;;;;5050773;28;20028;-83
2021/11/07 07:11:48;;;;;;;16.67;1.88;;;10.20;99.90;;;;;;5032760;28;20036;-82
2021/11/07 07:16:49;;;;;;;17.15;1.50;;;10.20;99.90;;;;;;5054691;28;20033;-82
2021/11/07 07:22:09;;;;;;;11.40;1.73;;;10.20;99.90;;;;;;5050206;28;20033;-83
2021/11/07 07:24:51;;;;;;;11.77;1.25;;;10.10;99.90;;;;;;5036445;28;20536;-83
2021/11/07 07:35:06;;;;;;;22.40;2.58;;;10.00;99.90;;;;;;5054105;28;20036;-83
2021/11/07 07:37:31;;;;;;;15.25;1.63;;;10.00;99.90;;;;;;5036558;28;20036;-82
2021/11/07 07:39:57;;;;;;;11.05;1.67;;;10.00;99.90;;;;;;5045688;28;20917;-82
2021/11/07 07:42:23;;;;;;;22.75;2.85;;;10.00;99.90;;;;;;5038262;28;20408;-84
2021/11/07 07:44:51;;;;;;;20.33;1.55;;;10.00;99.90;;;;;;5036427;28;20049;-91
2021/11/07 07:47:18;;;;;;;18.08;2.13;;;9.90;99.90;;;;;;5038053;28;20025;-84
2021/11/07 07:49:43;;;;;;;12.70;1.48;;;9.90;99.90;;;;;;5060417;28;20025;-84
2021/11/07 07:52:10;;;;;;;16.20;1.52;;;9.90;99.90;;;;;;5034514;28;20033;-84
2021/11/07 07:54:36;;;;;;;16.00;1.67;;;9.90;99.90;;;;;;5034099;28;20088;-83
2021/11/07 07:57:02;;;;;;;14.10;2.03;;;9.90;99.90;;;;;;5035154;28;20069;-84
2021/11/07 07:59:27;;;;;;;12.85;1.30;;;9.90;99.90;;;;;;5036630;28;20020;-84
2021/11/07 08:01:53;;;;;;;18.08;1.65;;;9.80;99.90;;;;;;5032327;28;20051;-83
2021/11/07 08:04:20;;;;;;;14.45;1.80;;;9.80;99.90;;;;;;5032570;28;20535;-83
2021/11/07 08:06:45;;;;;;;19.80;2.35;;;9.90;99.90;;;;;;5031905;28;20029;-83
2021/11/07 08:09:11;;;;;;;17.90;1.42;;;9.90;99.90;;;;;;5028885;28;20025;-84
2021/11/07 08:11:39;;;;;;;19.50;2.60;;;10.00;99.90;;;;;;5028363;28;20029;-83
2021/11/07 08:14:05;;;;;;;15.40;1.80;;;10.10;99.90;;;;;;5031293;28;20047;-84
2021/11/07 08:16:31;;;;;;;20.98;1.95;;;10.10;99.90;;;;;;5029063;28;20124;-83
2021/11/07 08:18:57;;;;;;;23.20;2.28;;;10.10;99.90;;;;;;5030266;28;20055;-84
2021/11/07 08:21:25;;;;;;;19.60;2.00;;;10.20;99.90;;;;;;5028734;28;20040;-83
2021/11/07 08:23:53;;;;;;;22.98;2.05;;;10.20;99.90;;;;;;5029834;28;20024;-84
2021/11/07 08:26:20;;;;;;;18.27;1.73;;;10.30;99.90;;;;;;5030481;28;20029;-84
2021/11/07 08:28:47;;;;;;;13.90;1.30;;;10.30;99.90;;;;;;5031681;28;20476;-84
2021/11/07 08:31:21;;;;;;;17.63;1.75;;;10.30;99.90;;;;;;5030488;28;20033;-84
2021/11/07 08:33:46;;;;;;;21.52;2.08;;;10.20;99.90;;;;;;5026912;28;20037;-84
2021/11/07 08:36:18;;;;;;;24.35;2.10;;;10.20;99.90;;;;;;5029978;28;20370;-83
2021/11/07 08:38:48;;;;;;;23.95;1.67;;;10.20;99.90;;;;;;5031185;28;20036;-83
2021/11/07 08:41:16;;;;;;;14.48;1.55;;;10.10;99.90;;;;;;5030796;28;20025;-83
2021/11/07 09:02:53;;;;;;;12.60;1.50;;;10.10;99.90;;;;;;5048226;28;20128;-84
2021/11/07 09:05:26;;;;;;;14.07;1.58;;;10.20;99.90;;;;;;5031028;28;20025;-83
2021/11/07 09:10:36;;;;;;;13.98;1.25;;;10.60;99.90;;;;;;5048812;28;20036;-85
2021/11/07 09:13:06;;;;;;;17.13;1.10;;;10.70;99.90;;;;;;5032982;28;20059;-84
2021/11/07 09:15:33;;;;;;;18.83;2.08;;;10.70;99.90;;;;;;5034361;28;20033;-93
2021/11/07 09:18:00;;;;;;;16.27;1.50;;;10.70;99.90;;;;;;5026801;28;20028;-83
2021/11/07 09:23:09;;;;;;;19.73;2.20;;;10.60;99.90;;;;;;5042944;28;20045;-85
2021/11/07 09:25:44;;;;;;;12.93;1.00;;;10.50;99.90;;;;;;5029788;28;20453;-85
2021/11/07 09:28:20;;;;;;;16.25;2.33;;;10.50;99.90;;;;;;5031556;28;20071;-84
2021/11/07 09:33:44;;;;;;;20.63;1.65;;;10.50;99.90;;;;;;5045096;28;20036;-85
2021/11/07 09:39:20;;;;;;;19.48;2.10;;;10.80;99.90;;;;;;5014456;28;20033;-85
2021/11/07 09:42:36;;;;;;;15.23;1.20;;;10.90;99.90;;;;;;5032127;28;20501;-84
2021/11/07 09:44:39;;;;;;;19.65;1.48;;;10.90;99.90;;;;;;5034934;28;20053;-82
2021/11/07 09:47:06;;;;;;;16.15;1.45;;;11.00;99.90;;;;;;5042669;28;20029;-82
2021/11/07 09:49:44;;;;;;;18.25;1.42;;;11.00;99.90;;;;;;5027035;28;20032;-82
2021/11/07 09:52:13;;;;;;;14.13;1.33;;;11.00;99.90;;;;;;5016337;28;20021;-83
2021/11/07 09:54:48;;;;;;;18.23;2.33;;;11.00;99.90;;;;;;5048947;28;20024;-83
2021/11/07 09:57:17;;;;;;;12.85;1.23;;;11.00;99.90;;;;;;5034475;28;20025;-83
2021/11/07 09:59:43;;;;;;;17.77;1.90;;;11.00;99.90;;;;;;5053218;28;20009;-83
2021/11/07 10:02:09;;;;;;;15.38;1.23;;;11.00;99.90;;;;;;5036459;28;20449;-83
2021/11/07 10:04:37;;;;;;;17.05;1.70;;;11.00;99.90;;;;;;5031067;28;20029;-83
2021/11/07 10:07:22;;;;;;;12.00;1.10;;;10.90;99.90;;;;;;5032987;28;20025;-82
2021/11/07 10:09:54;;;;;;;13.10;1.65;;;10.90;99.90;;;;;;5034623;28;20563;-83
2021/11/07 10:12:31;;;;;;;16.17;1.20;;;10.80;99.90;;;;;;5041724;28;20033;-82
2021/11/07 10:15:02;;;;;;;19.42;1.52;;;10.80;99.90;;;;;;5034352;28;20032;-83
2021/11/07 10:17:40;;;;;;;13.20;1.30;;;10.80;99.90;;;;;;5026845;28;20052;-83
2021/11/07 10:20:20;;;;;;;16.75;1.55;;;10.80;99.90;;;;;;5029147;28;20087;-83
2021/11/07 10:22:56;;;;;;;16.67;1.73;;;11.00;99.90;;;;;;5026367;28;20116;-83
2021/11/07 10:25:36;;;;;;;16.98;1.95;;;11.00;99.90;;;;;;5034860;28;20025;-83
2021/11/07 10:28:15;;;;;;;16.75;2.17;;;11.10;99.90;;;;;;5039848;28;20063;-84
2021/11/07 10:30:46;;;;;;;9.93;0.90;;;11.10;99.90;;;;;;5033271;28;20473;-83
2021/11/07 10:33:31;;;;;;;16.58;1.88;;;11.10;99.90;;;;;;5035654;28;20132;-84
2021/11/07 10:36:52;;;;;;;19.00;1.90;;;11.30;99.90;;;;;;5033317;28;20032;-83
2021/11/07 10:39:20;;;;;;;20.63;2.15;;;11.40;99.90;;;;;;5049137;28;20083;-84
2021/11/07 10:44:54;;;;;;;19.75;2.15;;;11.60;99.90;;;;;;5053417;28;20477;-84
2021/11/07 10:47:32;;;;;;;;;;;11.70;99.90;;;;;;5035429;28;20033;-84
2021/11/07 10:52:47;;;;;;;14.80;1.60;;;11.60;99.90;;;;;;5052872;28;20072;-84
2021/11/07 10:55:28;;;;;;;12.23;1.52;;;11.70;99.90;;;;;;5038771;28;20171;-83
2021/11/07 10:58:00;;;;;;;13.15;1.33;;;11.80;99.90;;;;;;5028726;28;20402;-84
2021/11/07 11:00:29;;;;;;;17.50;1.90;;;11.80;99.90;;;;;;5025377;28;20044;-83
2021/11/07 11:03:00;;;;;;;17.20;1.70;;;11.90;99.90;;;;;;5038111;28;20041;-84
2021/11/07 11:05:27;;;;;;;13.75;1.33;;;11.90;99.90;;;;;;5037617;28;20447;-85
2021/11/07 11:08:04;;;;;;;15.23;1.35;;;11.90;99.90;;;;;;5039357;28;20103;-84
2021/11/07 11:32:52;;;;;;;16.83;2.30;;;12.30;98.10;;;;;;5030312;28;20168;-84
2021/11/07 11:43:09;;;;;;;21.42;1.30;;;12.10;97.40;;;;;;5017536;28;20038;-83
2021/11/07 11:45:39;;;;;;;13.23;1.15;;;12.10;97.70;;;;;;5021516;28;20033;-84
2021/11/07 11:57:42;;;;;;;12.93;1.60;;;12.90;97.50;;;;;;5005498;28;20037;-83
2021/11/07 12:00:40;;;;;;;12.43;1.15;;;13.10;96.00;;;;;;5009997;28;20025;-85
2021/11/07 12:03:28;;;;;;;15.68;1.10;;;13.30;95.30;;;;;;5026206;28;20052;-85
2021/11/07 12:06:01;;;;;;;10.93;1.35;;;13.30;94.90;;;;;;5008894;28;20029;-84
2021/11/07 12:08:41;;;;;;;6.20;0.60;;;13.30;94.60;;;;;;5007039;28;20092;-86
2021/11/07 12:11:24;;;;;;;14.45;1.20;;;13.10;94.00;;;;;;5005640;28;20033;-85
2021/11/07 12:14:04;;;;;;;13.65;1.05;;;12.70;94.60;;;;;;5006944;28;20034;-85
2021/11/07 12:16:56;;;;;;;11.48;1.30;;;12.60;95.50;;;;;;5010659;28;20030;-86
2021/11/07 12:19:41;;;;;;;9.60;0.95;;;12.60;96.00;;;;;;5012907;28;20030;-84
2021/11/07 12:22:44;;;;;;;16.90;1.45;;;12.90;96.00;;;;;;5009791;28;20034;-86
2021/11/07 12:25:11;;;;;;;11.23;1.50;;;13.10;95.30;;;;;;5000916;28;20070;-85
2021/11/07 12:27:48;;;;;;;14.75;1.10;;;13.20;94.50;;;;;;5022401;28;20034;-84
2021/11/07 12:30:24;;;;;;;13.15;1.98;;;13.20;93.60;;;;;;5007125;28;20027;-85
2021/11/07 12:33:15;;;;;;;9.05;1.08;;;13.20;93.40;;;;;;5007452;28;20026;-84
2021/11/07 12:36:08;;;;;;;23.85;2.92;;;13.20;93.70;;;;;;5008655;28;20022;-85
2021/11/07 12:41:28;;;;;;;12.23;1.13;;;13.00;92.00;;;;;;4999346;28;20057;-83
2021/11/07 12:44:04;;;;;;;18.50;1.65;;;12.80;91.80;;;;;;5013619;28;20033;-85
2021/11/07 12:46:49;;;;;;;15.00;1.88;;;12.50;92.60;;;;;;5015387;28;20496;-84
2021/11/07 12:49:15;;;;;;;20.70;1.88;;;11.90;93.80;;;;;;4996904;28;20041;-86
2021/11/07 12:51:54;;;;;;;14.73;1.50;;;11.30;95.50;;;;;;5012779;28;20481;-86
2021/11/07 12:54:24;;;;;;;12.50;1.27;;;11.00;96.60;;;;;;5013173;28;20033;-84
2021/11/07 12:57:12;;;;;;;15.77;1.83;;;10.90;97.70;;;;;;5031821;28;20029;-85
2021/11/07 12:59:48;;;;;;;13.50;1.00;;;10.70;98.20;;;;;;5029771;28;20179;-86
2021/11/07 13:02:18;;;;;;;17.80;1.63;;;10.50;99.60;;;;;;5007012;28;20044;-85
2021/11/07 13:04:50;;;;;;;24.60;2.67;;;10.50;99.90;;;;;;5023361;28;20044;-86
2021/11/07 13:07:27;;;;;;;25.77;2.42;;;10.30;99.90;;;;;;5030902;28;20541;-87
2021/11/07 13:09:59;;;;;;;21.05;1.98;;;10.10;99.90;;;;;;5027838;28;20029;-87
2021/11/07 13:12:37;;;;;;;22.95;2.08;;;9.90;99.90;;;;;;5016226;28;20021;-87
2021/11/07 13:18:29;;;;;;;16.05;2.13;;;9.30;99.90;;;;;;5004326;28;20035;-87
2021/11/07 13:24:02;;;;;;;19.30;1.77;;;9.10;99.90;;;;;;5021128;28;20041;-86
2021/11/07 13:32:35;;;;;;;20.20;1.80;;;9.00;99.90;;;;;;5015691;28;20061;-87
2021/11/07 13:35:23;;;;;;;14.65;2.08;;;9.10;99.90;;;;;;5031346;28;20370;-87
2021/11/07 13:38:06;;;;;;;17.25;1.45;;;9.10;99.90;;;;;;5026865;28;20029;-87
2021/11/07 13:40:37;;;;;;;29.42;2.92;;;9.10;99.90;;;;;;5034731;28;20552;-88
2021/11/07 13:43:08;;;;;;;20.10;2.03;;;9.20;99.90;;;;;;5017360;28;20052;-87
2021/11/07 13:45:36;;;;;;;26.65;1.92;;;9.20;99.90;;;;;;5028953;28;20026;-88
2021/11/07 13:48:13;;;;;;;17.95;2.17;;;9.20;99.90;;;;;;5038690;28;20029;-89
2021/11/07 13:50:39;;;;;;;19.92;1.83;;;9.30;99.90;;;;;;5032013;28;20501;-87
2021/11/07 13:53:05;;;;;;;18.23;1.50;;;9.20;99.90;;;;;;5028205;28;20040;-87
2021/11/07 13:55:35;;;;;;;19.42;1.63;;;9.20;99.90;;;;;;5039406;28;20025;-86
2021/11/07 13:58:20;;;;;;;14.27;0.60;;;9.20;99.90;;;;;;5032962;28;20025;-86
2021/11/07 14:00:47;;;;;;;13.40;1.42;;;9.00;99.90;;;;;;5023489;28;20032;-86
2021/11/07 14:03:15;;;;;;;14.73;0.98;;;8.90;99.90;;;;;;5025949;28;20030;-87
2021/11/07 14:05:53;;;;;;;10.25;1.15;;;8.80;99.90;;;;;;5011176;28;20068;-85
2021/11/07 14:08:19;;;;;;;7.20;0.95;;;8.80;99.90;;;;;;5003942;28;20045;-86
2021/11/07 14:10:45;;;;;;;23.25;1.83;;;8.80;99.90;;;;;;5012028;28;20021;-85
2021/11/07 14:13:15;;;;;;;14.68;1.02;;;8.90;99.90;;;;;;5022125;28;20034;-85
2021/11/07 14:15:45;;;;;;;15.02;1.30;;;8.90;99.90;;;;;;5019523;28;20045;-86
2021/11/07 14:18:25;;;;;;;16.85;1.48;;;9.00;99.90;;;;;;5009302;28;20065;-87
2021/11/07 14:20:57;;;;;;;16.70;1.45;;;9.10;99.90;;;;;;5008686;28;20783;-87
2021/11/07 14:23:43;;;;;;;18.50;1.87;;;9.10;99.90;;;;;;5026435;28;20048;-86
2021/11/07 14:26:16;;;;;;;22.40;1.98;;;9.20;99.90;;;;;;5011577;28;20393;-86
2021/11/07 14:29:14;;;;;;;21.98;1.92;;;9.20;99.90;;;;;;5011667;28;20034;-86
2021/11/07 14:32:03;;;;;;;15.25;1.33;;;9.20;99.90;;;;;;5004421;28;20037;-86
2021/11/07 14:39:53;;;;;;;19.40;2.35;;;9.20;99.90;;;;;;4999992;28;20022;-86
2021/11/07 14:45:25;;;;;;;28.48;1.95;;;9.10;99.90;;;;;;5008454;28;20022;-86
2021/11/07 14:51:41;;;;;;;26.73;6.25;;;9.20;99.90;;;;;;4949372;28;20065;-84
2021/11/07 14:54:51;;;;;;;29.40;10.30;;;9.20;99.90;;;;;;5003455;28;20456;-85
2021/11/07 15:05:31;;;;;;;18.60;4.43;;;9.30;99.90;;;;;;5007582;28;20116;-87
2021/11/07 15:08:33;;;;;;;27.45;6.80;;;9.40;99.90;;;;;;5003812;28;20061;-85
2021/11/07 15:11:27;;;;;;;20.40;4.03;;;9.40;99.90;;;;;;4966300;28;20375;-85
2021/11/07 15:16:40;;;;;;;30.10;9.18;;;9.20;99.90;;;;;;5004014;28;20026;-84
2021/11/07 15:19:14;;;;;;;23.20;6.95;;;9.20;99.90;;;;;;5003578;28;20113;-84
2021/11/07 15:21:48;;;;;;;33.28;10.55;;;9.20;99.90;;;;;;5007867;28;20430;-84
2021/11/07 15:24:22;;;;;;;22.50;8.20;;;9.20;99.90;;;;;;5023204;28;20103;-86
2021/11/07 15:26:56;;;;;;;34.75;12.48;;;9.20;99.90;;;;;;5022703;28;20029;-85
2021/11/07 15:29:32;;;;;;;38.88;11.98;;;9.20;99.90;;;;;;5002430;28;20068;-86
2021/11/07 15:32:13;;;;;;;29.73;11.93;;;9.20;99.90;;;;;;5005538;28;20030;-85
2021/11/07 15:34:45;;;;;;;26.92;8.93;;;9.20;99.90;;;;;;5022245;28;20600;-84
2021/11/07 15:37:28;;;;;;;21.95;3.58;;;9.20;99.90;;;;;;5006394;28;20121;-84